createdAt,value
2022-11-24T00:02:19.756Z,95194.59
2022-11-24T00:07:21.340Z,95189.34
2022-11-24T00:12:22.824Z,95203.25
2022-11-24T00:17:24.323Z,95201.16
2022-11-24T00:22:25.747Z,95200.91
2022-11-24T00:27:27.182Z,95197.25
2022-11-24T00:32:29.795Z,95207.28
2022-11-24T00:37:31.254Z,95194.25
2022-11-24T00:42:32.710Z,95194.22
2022-11-24T00:47:34.183Z,95212.53
2022-11-24T00:52:35.629Z,95204.78
2022-11-24T00:57:37.053Z,95209.09
2022-11-24T01:02:38.607Z,95219.53
2022-11-24T01:07:40.184Z,95228.56
2022-11-24T01:12:41.688Z,95236.16
2022-11-24T01:17:43.259Z,95245.53
2022-11-24T01:22:44.782Z,95250.41
2022-11-24T01:27:46.237Z,95261.09
2022-11-24T01:32:47.718Z,95271.88
2022-11-24T01:37:49.160Z,95279.75
2022-11-24T01:42:52.587Z,95284.75
2022-11-24T01:47:54.358Z,95288.72
2022-11-24T01:52:56.984Z,95298.38
2022-11-24T01:58:13.240Z,95294.00
2022-11-24T02:03:19.439Z,95311.53
2022-11-24T02:08:29.427Z,95312.91
2022-11-24T02:13:34.347Z,95322.91
2022-11-24T02:18:38.336Z,95330.50
2022-11-24T02:23:48.000Z,95331.84
2022-11-24T02:28:49.940Z,95327.81
2022-11-24T02:33:51.766Z,95328.78
2022-11-24T02:38:53.214Z,95334.28
2022-11-24T02:43:56.682Z,95338.16
2022-11-24T02:48:58.151Z,95323.69
2022-11-24T02:53:59.897Z,95345.72
2022-11-24T02:59:01.386Z,95350.03
2022-11-24T03:04:02.915Z,95352.31
2022-11-24T03:09:04.937Z,95356.41
2022-11-24T03:14:06.939Z,95361.00
2022-11-24T03:19:08.432Z,95360.06
2022-11-24T03:24:09.962Z,95364.69
2022-11-24T03:29:11.447Z,95356.34
2022-11-24T03:34:12.867Z,95358.59
2022-11-24T03:39:14.404Z,95364.16
2022-11-24T03:44:15.844Z,95354.09
2022-11-24T03:49:17.525Z,95353.38
2022-11-24T03:54:18.972Z,95351.44
2022-11-24T03:59:20.465Z,95350.41
2022-11-24T04:04:21.905Z,95352.03
2022-11-24T04:09:23.352Z,95355.13
2022-11-24T04:14:24.814Z,95362.78
2022-11-24T04:19:26.296Z,95360.78
2022-11-24T04:24:27.715Z,95371.09
2022-11-24T04:29:29.200Z,95377.50
2022-11-24T04:34:30.752Z,95386.19
2022-11-24T04:39:32.343Z,95391.91
2022-11-24T04:44:34.198Z,95391.06
2022-11-24T04:49:35.839Z,95390.69
2022-11-24T04:54:37.274Z,95393.78
2022-11-24T04:59:38.711Z,95409.16
2022-11-24T05:04:40.223Z,95420.50
2022-11-24T05:09:58.463Z,95432.50
2022-11-24T05:15:02.265Z,95439.00
2022-11-24T05:20:05.512Z,95429.13
2022-11-24T05:25:07.199Z,95434.44
2022-11-24T05:30:09.434Z,95439.78
2022-11-24T05:35:10.856Z,95435.00
2022-11-24T05:40:12.292Z,95438.59
2022-11-24T05:45:16.787Z,95435.38
2022-11-24T05:50:20.285Z,95439.94
2022-11-24T05:55:21.731Z,95429.66
2022-11-24T06:00:23.130Z,95443.53
2022-11-24T06:05:25.332Z,95443.00
2022-11-24T06:10:27.069Z,95457.69
2022-11-24T06:15:28.522Z,95458.50
2022-11-24T06:20:32.678Z,95455.41
2022-11-24T06:25:34.606Z,95454.09
2022-11-24T06:30:36.074Z,95459.34
2022-11-24T06:35:37.479Z,95463.75
2022-11-24T06:40:38.870Z,95470.28
2022-11-24T06:45:40.339Z,95471.19
2022-11-24T06:50:41.816Z,95473.25
2022-11-24T06:55:44.086Z,95467.41
2022-11-24T07:00:45.588Z,95475.09
2022-11-24T07:05:47.089Z,95471.84
2022-11-24T07:10:48.561Z,95473.72
2022-11-24T07:15:50.041Z,95470.03
2022-11-24T07:20:51.502Z,95469.56
2022-11-24T07:25:52.892Z,95474.09
2022-11-24T07:30:54.343Z,95474.69
2022-11-24T07:35:59.668Z,95474.88
2022-11-24T07:41:06.156Z,95484.16
2022-11-24T07:46:10.344Z,95476.56
2022-11-24T07:51:12.077Z,95479.94
2022-11-24T07:56:13.576Z,95489.03
2022-11-24T08:01:18.670Z,95496.03
2022-11-24T08:06:27.281Z,95505.78
2022-11-24T08:11:31.836Z,95506.41
2022-11-24T08:16:33.437Z,95500.72
2022-11-24T08:21:34.874Z,95495.34
2022-11-24T08:26:36.388Z,95510.78
2022-11-24T08:31:39.063Z,95505.22
2022-11-24T08:36:40.515Z,95517.03
2022-11-24T08:41:41.924Z,95524.38
2022-11-24T08:46:43.766Z,95541.88
2022-11-24T08:51:45.233Z,95558.69
2022-11-24T08:56:49.144Z,95571.16
2022-11-24T09:01:50.652Z,95580.47
2022-11-24T09:06:52.080Z,95586.75
2022-11-24T09:11:53.532Z,95583.19
2022-11-24T09:16:54.999Z,95598.25
2022-11-24T09:21:56.525Z,95605.66
2022-11-24T09:26:57.970Z,95611.88
2022-11-24T09:32:03.606Z,95602.84
2022-11-24T09:37:08.050Z,95627.66
2022-11-24T09:42:35.642Z,95649.66
2022-11-24T09:47:58.682Z,95646.81
2022-11-24T09:53:26.222Z,95637.47
2022-11-24T09:58:37.294Z,95648.16
2022-11-24T10:03:42.299Z,95653.72
2022-11-24T10:09:02.319Z,95629.25
2022-11-24T10:14:22.587Z,95632.75
2022-11-24T10:19:52.823Z,95637.09
2022-11-24T10:25:31.991Z,95640.09
2022-11-24T10:30:33.447Z,95644.72
2022-11-24T10:35:41.414Z,95647.47
2022-11-24T10:40:57.032Z,95643.03
2022-11-24T10:46:22.375Z,95642.38
2022-11-24T10:51:34.688Z,95654.78
2022-11-24T10:56:43.462Z,95657.47
2022-11-24T11:01:44.959Z,95671.34
2022-11-24T11:06:46.517Z,95659.00
2022-11-24T11:11:48.992Z,95669.00
2022-11-24T11:16:52.336Z,95667.59
2022-11-24T11:22:02.298Z,95656.25
2022-11-24T11:27:20.299Z,95665.22
2022-11-24T11:37:49.453Z,95653.69
2022-11-24T11:43:13.791Z,95654.38
2022-11-24T11:48:42.421Z,95659.13
2022-11-24T11:53:56.670Z,95661.38
2022-11-24T11:59:16.670Z,95660.97
2022-11-24T12:04:39.942Z,95676.94
2022-11-24T12:09:59.661Z,95675.66
2022-11-24T12:15:20.005Z,95685.34
2022-11-24T12:20:37.791Z,95679.66
2022-11-24T12:25:45.117Z,95683.97
2022-11-24T12:31:07.294Z,95692.44
2022-11-24T12:36:30.707Z,95683.69
2022-11-24T12:41:42.505Z,95691.09
2022-11-24T12:46:53.374Z,95696.78
2022-11-24T12:52:01.428Z,95699.38
2022-11-24T12:57:22.576Z,95703.94
2022-11-24T13:02:42.749Z,95703.63
2022-11-24T13:07:57.153Z,95708.50
2022-11-24T13:13:10.171Z,95695.50
2022-11-24T13:18:50.110Z,95687.06
2022-11-24T13:23:59.583Z,95682.91
2022-11-24T13:29:13.311Z,95689.13
2022-11-24T13:34:45.430Z,95688.91
2022-11-24T13:39:52.066Z,95696.66
2022-11-24T13:44:58.711Z,95700.47
2022-11-24T13:50:01.790Z,95701.59
2022-11-24T13:55:18.101Z,95698.81
2022-11-24T14:00:35.430Z,95700.47
2022-11-24T14:05:39.059Z,95690.16
2022-11-24T14:10:41.921Z,95690.31
2022-11-24T14:15:43.487Z,95691.59
2022-11-24T14:20:45.029Z,95691.66
2022-11-24T14:25:50.660Z,95693.47
2022-11-24T14:31:09.283Z,95686.19
2022-11-24T14:36:14.890Z,95686.19
2022-11-24T14:41:23.290Z,95695.81
2022-11-24T14:46:24.951Z,95696.28
2022-11-24T14:51:33.710Z,95697.78
2022-11-24T14:56:37.475Z,95705.63
2022-11-24T15:01:38.948Z,95704.22
2022-11-24T15:06:42.615Z,95700.09
2022-11-24T15:11:44.046Z,95702.44
2022-11-24T15:16:45.701Z,95700.81
2022-11-24T15:21:49.229Z,95698.06
2022-11-24T15:26:58.878Z,95691.81
2022-11-24T15:32:00.437Z,95677.22
2022-11-24T15:37:02.214Z,95673.06
2022-11-24T15:42:03.716Z,95678.91
2022-11-24T15:47:05.302Z,95669.88
2022-11-24T15:52:06.871Z,95670.72
2022-11-24T15:57:10.637Z,95674.47
2022-11-24T16:02:12.164Z,95670.97
2022-11-24T16:07:14.143Z,95691.38
2022-11-24T16:12:15.635Z,95688.69
2022-11-24T16:17:17.103Z,95681.75
2022-11-24T16:22:18.527Z,95681.28
2022-11-24T16:27:19.990Z,95667.69
2022-11-24T16:32:21.531Z,95677.16
2022-11-24T16:37:23.668Z,95676.25
2022-11-24T16:42:25.147Z,95689.91
2022-11-24T16:47:26.603Z,95689.19
2022-11-24T16:52:28.000Z,95673.03
2022-11-24T16:57:29.471Z,95667.03
2022-11-24T17:02:30.907Z,95676.75
2022-11-24T17:07:32.775Z,95683.06
2022-11-24T17:12:35.784Z,95685.56
2022-11-24T17:17:37.629Z,95705.59
2022-11-24T17:22:39.168Z,95708.47
2022-11-24T17:27:40.643Z,95688.31
2022-11-24T17:32:42.093Z,95680.53
2022-11-24T17:37:43.571Z,95678.88
2022-11-24T17:42:45.124Z,95682.44
2022-11-24T17:47:46.597Z,95682.09
2022-11-24T17:52:48.087Z,95660.34
2022-11-24T17:57:49.500Z,95667.91
2022-11-24T18:02:50.988Z,95667.91
2022-11-24T18:07:52.552Z,95658.00
2022-11-24T18:12:54.024Z,95652.41
2022-11-24T18:17:55.631Z,95661.66
2022-11-24T18:23:05.425Z,95659.34
2022-11-24T18:28:08.183Z,95646.31
2022-11-24T18:33:09.709Z,95637.97
2022-11-24T18:38:11.121Z,95645.59
2022-11-24T18:43:12.511Z,95661.97
2022-11-24T18:48:14.706Z,95643.72
2022-11-24T18:53:16.165Z,95646.94
2022-11-24T18:58:17.600Z,95633.47
2022-11-24T19:03:19.060Z,95640.88
2022-11-24T19:08:20.487Z,95639.16
2022-11-24T19:13:22.010Z,95643.91
2022-11-24T19:18:23.412Z,95641.38
2022-11-24T19:23:25.048Z,95637.66
2022-11-24T19:28:26.611Z,95637.91
2022-11-24T19:33:28.508Z,95634.28
2022-11-24T19:38:34.558Z,95624.03
2022-11-24T19:43:36.132Z,95630.88
2022-11-24T19:48:42.808Z,95631.59
2022-11-24T19:53:44.986Z,95632.88
2022-11-24T19:58:47.953Z,95638.47
2022-11-24T20:04:13.837Z,95646.66
2022-11-24T20:09:16.981Z,95654.31
2022-11-24T20:14:19.483Z,95651.75
2022-11-24T20:19:20.993Z,95644.88
2022-11-24T20:24:23.106Z,95633.56
2022-11-24T20:29:25.224Z,95632.75
2022-11-24T20:34:26.785Z,95641.97
2022-11-24T20:39:28.357Z,95633.38
2022-11-24T20:44:29.874Z,95641.44
2022-11-24T20:49:31.337Z,95644.03
2022-11-24T20:54:33.084Z,95650.03
2022-11-24T20:59:34.918Z,95653.50
2022-11-24T21:04:36.754Z,95633.56
2022-11-24T21:09:38.389Z,95639.84
2022-11-24T21:14:40.148Z,95637.75
2022-11-24T21:19:41.807Z,95636.09
2022-11-24T21:24:43.189Z,95631.03
2022-11-24T21:29:44.642Z,95629.00
2022-11-24T21:34:46.147Z,95636.44
2022-11-24T21:39:47.789Z,95625.25
2022-11-24T21:44:49.349Z,95630.88
2022-11-24T21:49:50.818Z,95627.13
2022-11-24T21:54:52.227Z,95620.66
2022-11-24T21:59:53.692Z,95613.13
2022-11-24T22:04:55.114Z,95612.91
2022-11-24T22:09:56.586Z,95608.59
2022-11-24T22:14:58.075Z,95606.63
2022-11-24T22:19:59.522Z,95610.06
2022-11-24T22:25:00.882Z,95612.19
2022-11-24T22:30:02.339Z,95613.09
2022-11-24T22:35:04.204Z,95611.00
2022-11-24T22:40:06.352Z,95610.56
2022-11-24T22:45:08.306Z,95615.88
2022-11-24T22:50:10.285Z,95600.91
2022-11-24T22:55:11.719Z,95607.00
2022-11-24T23:00:14.258Z,95605.75
2022-11-24T23:05:20.601Z,95614.34
2022-11-24T23:10:22.390Z,95621.75
2022-11-24T23:15:23.884Z,95623.00
2022-11-24T23:20:25.317Z,95620.72
2022-11-24T23:25:26.753Z,95624.88
2022-11-24T23:30:28.208Z,95626.22
2022-11-24T23:35:29.695Z,95617.22
2022-11-24T23:40:31.184Z,95602.91
2022-11-24T23:45:32.619Z,95596.72
2022-11-24T23:50:35.250Z,95593.56
2022-11-24T23:55:36.684Z,95603.53
